Time;durP1;ratioP1;P1;durP2;ratioP2;P2;SDS_P1;SDS_P2;PMS_P1;PMS_P2;Temp;Humidity;BMP_temperature;BMP_pressure;BME280_temperature;BME280_humidity;BME280_pressure;Samples;Min_cycle;Max_cycle;Signal;HPM_P1;HPM_P2
2022/03/08 00:00:30;;;;;;;32.97;20.07;;;-1.80;99.90;;;;;;5053210;28;20049;-77
2022/03/08 00:02:57;;;;;;;27.97;19.13;;;-1.70;99.90;;;;;;5054112;28;20114;-78
2022/03/08 00:05:24;;;;;;;17.23;13.90;;;-1.60;99.90;;;;;;5054171;28;20071;-79
2022/03/08 00:07:51;;;;;;;22.87;13.57;;;-1.50;99.90;;;;;;5054099;28;20045;-79
2022/03/08 00:10:20;;;;;;;18.43;11.93;;;-1.40;99.90;;;;;;5054111;28;20087;-78
2022/03/08 00:12:48;;;;;;;17.97;13.07;;;-1.40;99.90;;;;;;5054061;28;20053;-79
2022/03/08 00:15:17;;;;;;;19.47;12.57;;;-1.50;99.90;;;;;;5053544;28;20053;-78
2022/03/08 00:17:44;;;;;;;20.47;13.30;;;-1.60;99.90;;;;;;5054153;28;20049;-78
2022/03/08 00:20:12;;;;;;;17.53;13.60;;;-1.60;99.90;;;;;;5053725;28;20049;-78
2022/03/08 00:22:40;;;;;;;17.67;11.17;;;-1.70;99.90;;;;;;5057774;28;20490;-79
2022/03/08 00:25:09;;;;;;;18.73;11.47;;;-1.70;99.90;;;;;;5063425;28;20073;-78
2022/03/08 00:27:37;;;;;;;11.00;8.13;;;-1.60;99.90;;;;;;5056436;28;20107;-77
2022/03/08 00:30:05;;;;;;;9.50;8.57;;;-1.60;99.90;;;;;;5042132;28;20045;-77
2022/03/08 00:32:31;;;;;;;12.90;7.70;;;-1.70;99.90;;;;;;5053854;28;20052;-79
2022/03/08 00:34:58;;;;;;;7.40;6.67;;;-1.70;99.90;;;;;;5054313;28;20107;-80
2022/03/08 00:37:25;;;;;;;11.43;9.13;;;-1.80;99.90;;;;;;5053539;28;20079;-78
2022/03/08 00:39:51;;;;;;;9.00;7.10;;;-1.80;99.90;;;;;;5053119;28;20049;-78
2022/03/08 00:42:18;;;;;;;9.43;4.83;;;-1.90;99.90;;;;;;5053763;28;20487;-79
2022/03/08 00:44:46;;;;;;;6.93;4.97;;;-1.90;99.90;;;;;;5054122;28;20045;-79
2022/03/08 00:47:12;;;;;;;7.23;6.03;;;-2.00;99.90;;;;;;5055191;28;20052;-78
2022/03/08 00:49:40;;;;;;;15.40;4.97;;;-2.00;99.90;;;;;;5053467;28;20501;-79
2022/03/08 00:52:08;;;;;;;9.47;4.73;;;-2.00;99.90;;;;;;5053391;28;20075;-78
2022/03/08 00:54:36;;;;;;;6.27;4.37;;;-2.00;99.90;;;;;;5053241;28;20045;-77
2022/03/08 00:57:03;;;;;;;4.43;4.13;;;-2.00;99.90;;;;;;5052965;28;20132;-78
2022/03/08 00:59:30;;;;;;;7.10;5.17;;;-2.00;99.90;;;;;;5052845;28;20048;-79
2022/03/08 01:01:58;;;;;;;5.57;4.13;;;-2.20;99.90;;;;;;5052728;28;20045;-78
2022/03/08 01:04:25;;;;;;;7.53;4.07;;;-2.40;99.90;;;;;;5053187;28;20049;-78
2022/03/08 01:06:53;;;;;;;17.00;5.37;;;-2.30;99.90;;;;;;5053126;28;20087;-78
2022/03/08 01:09:19;;;;;;;7.27;4.13;;;-2.30;99.90;;;;;;5052662;28;20048;-79
2022/03/08 01:11:46;;;;;;;5.40;3.30;;;-2.30;99.90;;;;;;5057629;28;20045;-79
2022/03/08 01:14:12;;;;;;;7.13;3.50;;;-2.40;99.90;;;;;;5059865;28;20060;-79
2022/03/08 01:16:39;;;;;;;6.27;4.03;;;-2.50;99.90;;;;;;5060102;28;20488;-77
2022/03/08 01:19:07;;;;;;;5.30;4.00;;;-2.60;99.90;;;;;;5059631;28;20045;-78
2022/03/08 01:21:35;;;;;;;4.67;3.77;;;-2.70;99.90;;;;;;5060219;28;20410;-77
2022/03/08 01:24:14;;;;;;;4.57;3.77;;;-2.70;99.90;;;;;;5057818;28;20045;-77
2022/03/08 01:26:42;;;;;;;8.23;4.23;;;-2.80;99.90;;;;;;5060110;28;20041;-78
2022/03/08 01:29:08;;;;;;;5.37;4.17;;;-2.60;99.90;;;;;;5059348;28;20110;-78
2022/03/08 01:31:35;;;;;;;8.23;5.20;;;-2.50;99.90;;;;;;5059790;28;20508;-78
2022/03/08 01:34:03;;;;;;;7.67;5.10;;;-2.40;99.90;;;;;;5059023;28;20049;-78
2022/03/08 01:36:31;;;;;;;9.33;4.70;;;-2.30;99.90;;;;;;5059827;28;20091;-78
2022/03/08 01:38:57;;;;;;;4.10;3.77;;;-2.30;99.90;;;;;;5059534;28;20048;-78
2022/03/08 01:41:24;;;;;;;5.43;5.03;;;-2.50;99.90;;;;;;5059179;28;20556;-79
2022/03/08 01:43:51;;;;;;;13.17;6.73;;;-2.60;99.90;;;;;;5059336;28;20049;-79
2022/03/08 01:46:18;;;;;;;9.50;5.40;;;-2.50;99.90;;;;;;5059087;28;20041;-78
2022/03/08 01:48:44;;;;;;;5.20;4.40;;;-2.50;99.90;;;;;;5059309;28;20044;-78
2022/03/08 01:51:13;;;;;;;7.30;6.37;;;-2.50;99.90;;;;;;5059670;28;20053;-78
2022/03/08 01:53:42;;;;;;;7.83;4.07;;;-2.60;99.90;;;;;;5059423;28;20127;-78
2022/03/08 01:56:09;;;;;;;4.63;3.70;;;-2.60;99.90;;;;;;5059407;28;20441;-78
2022/03/08 01:58:36;;;;;;;7.53;5.07;;;-2.60;99.90;;;;;;5059042;28;20048;-79
2022/03/08 02:01:03;;;;;;;9.00;5.20;;;-2.50;99.90;;;;;;5058542;28;20375;-79
2022/03/08 02:03:30;;;;;;;6.13;5.60;;;-2.50;99.90;;;;;;5062207;28;20045;-76
2022/03/08 02:05:57;;;;;;;6.03;4.83;;;-2.50;99.90;;;;;;5060043;28;20048;-77
2022/03/08 02:08:25;;;;;;;7.67;5.37;;;-2.60;99.90;;;;;;5059710;28;20048;-78
2022/03/08 02:10:54;;;;;;;5.47;4.53;;;-2.70;99.90;;;;;;5059011;28;20441;-78
2022/03/08 02:13:21;;;;;;;7.13;5.30;;;-2.80;99.90;;;;;;5059034;28;20095;-78
2022/03/08 02:15:49;;;;;;;7.57;5.43;;;-2.70;99.90;;;;;;5058894;28;20111;-78
2022/03/08 02:18:16;;;;;;;7.07;5.70;;;-2.70;99.90;;;;;;5059564;28;20121;-78
2022/03/08 02:20:43;;;;;;;4.50;3.67;;;-2.60;99.90;;;;;;5059956;28;20045;-78
2022/03/08 02:23:11;;;;;;;3.70;3.40;;;-2.70;99.90;;;;;;5056342;28;20048;-77
2022/03/08 02:25:37;;;;;;;3.60;3.30;;;-2.90;99.90;;;;;;5055956;28;20045;-78
2022/03/08 02:28:05;;;;;;;5.07;4.00;;;-2.90;99.90;;;;;;5055631;28;20083;-78
2022/03/08 02:30:32;;;;;;;2.83;2.60;;;-3.00;99.90;;;;;;5056435;28;20083;-79
2022/03/08 02:32:58;;;;;;;2.97;2.50;;;-3.00;99.90;;;;;;5055921;28;20045;-78
2022/03/08 02:35:27;;;;;;;17.50;3.33;;;-2.90;99.90;;;;;;5056020;28;20105;-77
2022/03/08 02:37:57;;;;;;;1.70;1.60;;;-2.90;99.90;;;;;;5055719;28;20563;-78
2022/03/08 02:40:28;;;;;;;1.97;1.40;;;-2.90;99.90;;;;;;5055357;28;20110;-78
2022/03/08 02:42:55;;;;;;;3.35;3.13;;;-2.80;99.90;;;;;;5056177;28;20067;-77
2022/03/08 02:45:23;;;;;;;2.30;2.10;;;-2.80;99.90;;;;;;5055390;28;20171;-78
2022/03/08 02:47:50;;;;;;;2.53;2.33;;;-2.80;99.90;;;;;;5055958;28;20052;-79
2022/03/08 02:50:17;;;;;;;4.07;2.77;;;-2.90;99.90;;;;;;5056703;28;20103;-78
2022/03/08 02:52:47;;;;;;;6.30;3.13;;;-2.90;99.90;;;;;;5055775;28;20065;-79
2022/03/08 02:55:14;;;;;;;2.53;2.17;;;-3.00;99.90;;;;;;5055625;28;20053;-78
2022/03/08 02:57:43;;;;;;;3.30;3.10;;;-3.00;99.90;;;;;;5055253;28;20198;-80
2022/03/08 03:00:12;;;;;;;2.23;2.03;;;-2.90;99.90;;;;;;5055119;28;20052;-79
2022/03/08 03:02:39;;;;;;;2.63;1.93;;;-2.80;99.90;;;;;;5055375;28;20040;-80
2022/03/08 03:05:07;;;;;;;1.53;1.43;;;-2.80;99.90;;;;;;5055648;28;20491;-79
2022/03/08 03:07:34;;;;;;;2.40;2.30;;;-2.90;99.90;;;;;;5055075;28;20095;-78
2022/03/08 03:10:01;;;;;;;7.17;3.00;;;-2.80;99.90;;;;;;5055238;28;20045;-79
2022/03/08 03:12:27;;;;;;;1.87;1.80;;;-2.90;99.90;;;;;;5055035;28;20395;-79
2022/03/08 03:14:55;;;;;;;4.00;3.03;;;-3.00;99.90;;;;;;5054891;28;20506;-80
2022/03/08 03:17:22;;;;;;;2.93;2.20;;;-3.10;99.90;;;;;;5055088;28;20041;-78
2022/03/08 03:19:49;;;;;;;5.70;3.00;;;-3.20;99.90;;;;;;5054859;28;20045;-79
2022/03/08 03:22:16;;;;;;;3.87;2.97;;;-3.40;99.90;;;;;;5054772;28;20052;-79
2022/03/08 03:24:42;;;;;;;4.73;3.60;;;-3.40;99.90;;;;;;5035245;28;20049;-78
2022/03/08 03:27:09;;;;;;;2.57;2.37;;;-3.50;99.90;;;;;;5038661;28;20053;-78
2022/03/08 03:29:36;;;;;;;7.17;3.83;;;-3.50;99.90;;;;;;5065756;28;20063;-79
2022/03/08 03:32:04;;;;;;;7.33;2.97;;;-3.30;99.90;;;;;;5062073;28;20107;-79
2022/03/08 03:34:31;;;;;;;3.53;3.20;;;-3.20;99.90;;;;;;5054180;28;20107;-79
2022/03/08 03:36:58;;;;;;;4.60;3.00;;;-3.10;99.90;;;;;;5055640;28;20053;-79
2022/03/08 03:39:25;;;;;;;2.43;2.33;;;-3.10;99.90;;;;;;5051577;28;20049;-78
2022/03/08 03:41:51;;;;;;;3.53;3.20;;;-3.00;99.90;;;;;;5054110;28;20057;-78
2022/03/08 03:44:18;;;;;;;1.80;1.40;;;-3.00;99.90;;;;;;5054525;28;20037;-80
2022/03/08 03:46:45;;;;;;;4.63;2.50;;;-3.00;99.90;;;;;;5054826;28;20106;-78
2022/03/08 03:49:14;;;;;;;1.87;1.77;;;-3.00;99.90;;;;;;5054076;28;20041;-79
2022/03/08 03:51:41;;;;;;;3.87;2.60;;;-3.00;99.90;;;;;;5054256;28;20044;-78
2022/03/08 03:54:08;;;;;;;2.73;2.63;;;-2.90;99.90;;;;;;5054792;28;20041;-79
2022/03/08 03:56:35;;;;;;;2.80;2.50;;;-2.90;99.90;;;;;;5054184;28;20048;-79
2022/03/08 03:59:02;;;;;;;5.20;2.73;;;-2.90;99.90;;;;;;5054391;28;20060;-78
2022/03/08 04:01:29;;;;;;;5.87;3.37;;;-2.90;99.90;;;;;;5053899;28;20045;-78
2022/03/08 04:03:55;;;;;;;4.33;2.73;;;-3.00;99.90;;;;;;5054147;28;20052;-78
2022/03/08 04:06:23;;;;;;;2.17;1.87;;;-3.00;99.90;;;;;;5054500;28;20396;-79
2022/03/08 04:08:50;;;;;;;3.20;2.37;;;-3.00;99.90;;;;;;5054181;28;20045;-79
2022/03/08 04:11:16;;;;;;;3.83;3.37;;;-2.90;99.90;;;;;;5053583;28;20045;-79
2022/03/08 04:13:43;;;;;;;3.10;2.87;;;-2.90;99.90;;;;;;5053597;28;20045;-78
2022/03/08 04:16:10;;;;;;;4.90;3.07;;;-3.00;99.90;;;;;;5053915;28;20053;-79
2022/03/08 04:18:37;;;;;;;5.27;2.40;;;-3.00;99.90;;;;;;5053670;28;20048;-78
2022/03/08 04:21:04;;;;;;;5.20;4.30;;;-2.90;99.90;;;;;;5054133;28;20053;-79
2022/03/08 04:23:32;;;;;;;3.77;3.47;;;-3.00;99.90;;;;;;5052173;28;20442;-78
2022/03/08 04:25:58;;;;;;;9.93;3.23;;;-3.00;99.90;;;;;;5053934;28;20041;-78
2022/03/08 04:28:25;;;;;;;5.33;3.33;;;-3.20;99.90;;;;;;5053430;28;20045;-78
2022/03/08 04:30:51;;;;;;;4.33;2.83;;;-3.40;99.90;;;;;;5053079;28;20053;-79
2022/03/08 04:33:18;;;;;;;2.83;2.63;;;-3.30;99.90;;;;;;5052959;28;20045;-77
2022/03/08 04:35:45;;;;;;;2.87;1.87;;;-3.30;99.90;;;;;;5053009;28;20549;-79
2022/03/08 04:38:11;;;;;;;6.97;4.73;;;-3.40;99.90;;;;;;5053269;28;20442;-79
2022/03/08 04:40:40;;;;;;;2.83;2.60;;;-3.50;99.90;;;;;;5053247;28;20194;-79
2022/03/08 04:43:06;;;;;;;3.70;3.47;;;-3.60;99.90;;;;;;5053163;28;20460;-79
2022/03/08 04:45:33;;;;;;;7.30;3.03;;;-3.70;99.90;;;;;;5052579;28;20499;-79
2022/03/08 04:48:00;;;;;;;5.20;4.20;;;-3.70;99.90;;;;;;5054845;28;20111;-78
2022/03/08 04:50:27;;;;;;;1.63;1.53;;;-3.70;99.90;;;;;;5053390;28;20051;-79
2022/03/08 04:52:53;;;;;;;10.90;6.00;;;-3.70;99.90;;;;;;5053532;28;20052;-81
2022/03/08 04:55:20;;;;;;;6.17;5.57;;;-3.70;99.90;;;;;;5053223;28;20162;-80
2022/03/08 04:57:49;;;;;;;4.37;3.87;;;-3.50;99.90;;;;;;5052460;28;20056;-80
2022/03/08 05:00:16;;;;;;;2.97;2.60;;;-3.50;99.90;;;;;;5053149;28;20048;-79
2022/03/08 05:02:45;;;;;;;4.50;3.27;;;-3.60;99.90;;;;;;5052962;28;20059;-77
2022/03/08 05:05:13;;;;;;;7.73;4.03;;;-3.60;99.90;;;;;;5041691;28;20052;-79
2022/03/08 05:07:42;;;;;;;3.60;3.33;;;-3.50;99.90;;;;;;5053344;28;20045;-78
2022/03/08 05:10:11;;;;;;;3.13;2.87;;;-3.50;99.90;;;;;;5052976;28;20052;-78
2022/03/08 05:12:39;;;;;;;4.10;2.60;;;-3.40;99.90;;;;;;5052992;28;20094;-79
2022/03/08 05:15:09;;;;;;;2.53;2.33;;;-3.40;99.90;;;;;;5053559;28;20052;-78
2022/03/08 05:17:36;;;;;;;5.27;1.97;;;-3.40;99.90;;;;;;5052628;28;20049;-78
2022/03/08 05:20:04;;;;;;;2.80;2.27;;;-3.50;99.90;;;;;;5053306;28;20045;-79
2022/03/08 05:22:30;;;;;;;2.20;2.00;;;-3.50;99.90;;;;;;5053180;28;20499;-78
2022/03/08 05:24:57;;;;;;;4.00;3.70;;;-3.50;99.90;;;;;;5053061;28;20048;-78
2022/03/08 05:27:24;;;;;;;4.77;2.77;;;-3.50;99.90;;;;;;5051575;28;20111;-80
2022/03/08 05:29:50;;;;;;;3.40;2.40;;;-3.40;99.90;;;;;;5053364;28;20450;-81
2022/03/08 05:32:18;;;;;;;2.83;2.53;;;-3.40;99.90;;;;;;5052812;28;20053;-78
2022/03/08 05:34:45;;;;;;;2.80;2.60;;;-3.30;99.90;;;;;;5049349;28;20450;-79
2022/03/08 05:37:11;;;;;;;3.83;3.43;;;-3.30;99.90;;;;;;5053491;28;20107;-79
2022/03/08 05:39:39;;;;;;;2.53;1.70;;;-3.30;99.90;;;;;;5054036;28;20194;-79
2022/03/08 05:42:06;;;;;;;1.80;1.63;;;-3.30;99.90;;;;;;5056386;28;20045;-79
2022/03/08 05:44:32;;;;;;;2.17;2.00;;;-3.40;99.90;;;;;;5054451;28;20544;-79
2022/03/08 05:46:59;;;;;;;2.17;2.03;;;-3.50;99.90;;;;;;5054705;28;20418;-80
2022/03/08 05:49:27;;;;;;;2.67;2.03;;;-3.50;99.90;;;;;;5054061;28;20045;-81
2022/03/08 05:51:54;;;;;;;4.83;4.23;;;-3.60;99.90;;;;;;5053959;28;20106;-79
2022/03/08 05:54:20;;;;;;;2.40;2.23;;;-3.40;99.90;;;;;;5053707;28;20051;-78
2022/03/08 05:56:47;;;;;;;1.63;1.53;;;-3.30;99.90;;;;;;5053272;28;20053;-80
2022/03/08 05:59:14;;;;;;;3.90;3.57;;;-3.20;99.90;;;;;;5055439;28;20510;-80
2022/03/08 06:01:40;;;;;;;5.50;2.20;;;-3.30;99.90;;;;;;5058240;28;20049;-81
2022/03/08 06:04:07;;;;;;;5.93;3.43;;;-3.20;99.90;;;;;;5059359;28;20044;-80
2022/03/08 06:06:35;;;;;;;6.67;2.07;;;-3.30;99.90;;;;;;5058857;28;20099;-78
2022/03/08 06:09:02;;;;;;;2.40;2.00;;;-3.20;99.90;;;;;;5057949;28;20479;-77
2022/03/08 06:11:28;;;;;;;3.27;2.73;;;-2.90;99.90;;;;;;5057918;28;20045;-79
2022/03/08 06:13:55;;;;;;;4.30;2.27;;;-2.40;99.90;;;;;;5049835;28;20450;-79
2022/03/08 06:16:22;;;;;;;3.10;2.73;;;-2.00;99.90;;;;;;5057124;28;20041;-79
2022/03/08 06:18:49;;;;;;;8.40;3.43;;;-1.60;99.90;;;;;;5057092;28;20095;-79
2022/03/08 06:21:15;;;;;;;4.33;3.07;;;-1.10;99.90;;;;;;5056136;28;20106;-80
2022/03/08 06:23:43;;;;;;;4.10;3.70;;;-0.70;99.90;;;;;;5055651;28;20053;-80
2022/03/08 06:26:10;;;;;;;4.33;4.03;;;-0.40;99.90;;;;;;5055741;28;20048;-80
2022/03/08 06:28:38;;;;;;;3.03;2.63;;;-0.10;99.90;;;;;;5055950;28;20132;-79
2022/03/08 06:31:05;;;;;;;11.40;3.87;;;0.20;99.90;;;;;;5060067;28;20040;-79
2022/03/08 06:33:31;;;;;;;3.20;2.90;;;0.50;99.90;;;;;;5064879;28;20461;-78
2022/03/08 06:35:58;;;;;;;2.53;2.33;;;0.80;99.90;;;;;;5068448;28;20103;-84
2022/03/08 06:38:25;;;;;;;6.77;4.20;;;1.10;99.90;;;;;;5049711;28;20501;-80
2022/03/08 06:40:54;;;;;;;4.07;2.97;;;1.20;99.90;;;;;;5049904;28;20045;-78
2022/03/08 06:43:21;;;;;;;4.30;3.77;;;1.70;99.90;;;;;;5052797;28;20144;-83
2022/03/08 06:45:48;;;;;;;4.37;3.00;;;2.00;99.90;;;;;;5060465;28;20041;-78
2022/03/08 06:48:14;;;;;;;4.13;3.83;;;2.20;99.90;;;;;;5056826;28;20136;-78
2022/03/08 06:50:41;;;;;;;6.70;5.13;;;2.50;99.90;;;;;;5059268;28;20041;-78
2022/03/08 06:53:07;;;;;;;6.93;5.63;;;2.80;99.90;;;;;;5061552;28;20094;-79
2022/03/08 06:55:35;;;;;;;5.27;4.60;;;3.20;99.90;;;;;;5060426;28;20045;-79
2022/03/08 06:58:04;;;;;;;8.60;6.70;;;3.60;99.90;;;;;;5057716;28;20045;-83
2022/03/08 07:00:30;;;;;;;9.73;7.10;;;3.90;99.90;;;;;;5057557;28;20049;-80
2022/03/08 07:02:57;;;;;;;11.33;6.60;;;4.20;99.90;;;;;;5056582;28;20053;-82
2022/03/08 07:05:24;;;;;;;7.77;6.20;;;4.50;99.90;;;;;;5057875;28;20045;-80
2022/03/08 07:07:51;;;;;;;7.93;5.00;;;4.80;99.90;;;;;;5057221;28;20555;-80
2022/03/08 07:10:18;;;;;;;7.67;4.73;;;5.00;99.90;;;;;;5057783;28;20090;-81
2022/03/08 07:12:45;;;;;;;10.47;6.50;;;4.80;99.90;;;;;;5057590;28;20081;-78
2022/03/08 07:15:15;;;;;;;12.03;8.43;;;5.10;99.90;;;;;;5060095;28;20110;-82
2022/03/08 07:17:46;;;;;;;12.37;6.13;;;5.10;99.90;;;;;;5058175;28;20048;-81
2022/03/08 07:20:13;;;;;;;8.77;7.00;;;5.60;99.90;;;;;;5058848;28;20052;-80
2022/03/08 07:22:40;;;;;;;4.60;4.17;;;5.60;99.90;;;;;;5060369;28;20067;-80
2022/03/08 07:25:08;;;;;;;8.83;5.10;;;6.00;99.90;;;;;;5056566;28;20099;-81
2022/03/08 07:27:35;;;;;;;7.73;4.70;;;6.20;99.90;;;;;;5057023;28;20041;-83
2022/03/08 07:33:41;;;;;;;7.00;4.70;;;7.20;99.90;;;;;;5198959;22;20110;-79
2022/03/08 07:36:08;;;;;;;7.83;5.67;;;7.70;99.90;;;;;;5077695;28;20210;-85
2022/03/08 07:38:35;;;;;;;8.50;4.28;;;8.00;99.90;;;;;;5095695;28;20035;-85
2022/03/08 07:41:03;;;;;;;8.32;5.47;;;8.30;99.90;;;;;;5085501;28;20056;-81
2022/03/08 07:43:30;;;;;;;20.15;12.75;;;8.70;99.30;;;;;;5077596;28;20049;-81
2022/03/08 07:45:57;;;;;;;9.35;7.30;;;9.00;98.40;;;;;;5078543;28;20045;-82
2022/03/08 07:48:23;;;;;;;8.85;7.95;;;9.30;96.80;;;;;;5082405;28;20105;-77
2022/03/08 07:50:51;;;;;;;13.93;8.88;;;9.50;95.70;;;;;;5075452;28;20052;-78
2022/03/08 07:53:18;;;;;;;12.73;6.72;;;9.70;94.80;;;;;;5074722;28;20052;-76
2022/03/08 07:55:45;;;;;;;9.48;6.70;;;10.10;93.60;;;;;;5075172;28;20045;-76
2022/03/08 07:58:13;;;;;;;7.50;6.25;;;10.40;91.80;;;;;;5073990;28;20040;-80
2022/03/08 08:00:41;;;;;;;9.07;7.35;;;10.70;91.20;;;;;;5074812;28;20538;-76
2022/03/08 08:03:08;;;;;;;6.95;5.45;;;11.00;88.80;;;;;;5074063;28;20122;-76
2022/03/08 08:05:34;;;;;;;6.70;5.25;;;11.20;86.80;;;;;;5075154;28;20041;-78
2022/03/08 08:08:03;;;;;;;9.23;5.40;;;11.40;83.50;;;;;;5075033;28;20044;-81
2022/03/08 08:10:30;;;;;;;7.93;5.18;;;11.50;82.00;;;;;;5074622;28;20390;-77
2022/03/08 08:12:57;;;;;;;6.38;5.28;;;11.90;81.30;;;;;;5073796;28;20040;-76
2022/03/08 08:15:23;;;;;;;10.07;5.70;;;12.20;78.50;;;;;;5073950;28;20044;-79
2022/03/08 08:17:50;;;;;;;6.35;3.63;;;12.40;75.60;;;;;;5074665;28;20094;-83
2022/03/08 08:20:21;;;;;;;30.73;21.45;;;12.50;73.50;;;;;;5055343;28;20095;-81
2022/03/08 08:22:48;;;;;;;19.23;12.95;;;12.30;72.60;;;;;;5071886;28;20060;-81
2022/03/08 08:25:16;;;;;;;95.03;54.88;;;12.80;73.40;;;;;;5072054;28;20422;-79
2022/03/08 08:27:43;;;;;;;81.10;46.22;;;13.30;71.20;;;;;;5080275;28;20083;-79
2022/03/08 08:30:11;;;;;;;8.43;6.55;;;13.60;70.40;;;;;;5073327;28;20049;-78
2022/03/08 08:32:38;;;;;;;4.53;2.78;;;13.80;67.70;;;;;;5058376;28;20051;-80
2022/03/08 08:35:05;;;;;;;4.68;3.03;;;14.10;65.10;;;;;;5073184;28;20048;-83
2022/03/08 08:37:32;;;;;;;3.88;3.47;;;14.40;63.80;;;;;;5074482;28;20071;-85
2022/03/08 08:39:58;;;;;;;3.53;3.08;;;14.60;63.00;;;;;;5056944;28;20052;-80
2022/03/08 08:42:27;;;;;;;4.55;4.13;;;14.80;61.50;;;;;;5056238;28;20048;-78
2022/03/08 08:44:53;;;;;;;5.15;3.50;;;15.00;60.80;;;;;;5074238;28;20449;-81
2022/03/08 08:47:20;;;;;;;3.30;3.00;;;15.10;59.50;;;;;;5073745;28;20048;-83
2022/03/08 08:49:47;;;;;;;3.45;2.60;;;15.20;58.50;;;;;;5074522;28;20453;-85
2022/03/08 08:52:14;;;;;;;5.60;3.13;;;15.40;58.30;;;;;;5073532;28;20044;-80
2022/03/08 08:54:41;;;;;;;6.03;4.25;;;15.70;57.50;;;;;;5073462;28;20444;-91
2022/03/08 08:57:08;;;;;;;146.00;86.93;;;15.70;57.80;;;;;;5075586;28;20051;-89
2022/03/08 08:59:36;;;;;;;43.30;29.65;;;15.90;57.90;;;;;;5076699;28;20049;-86
2022/03/08 09:02:03;;;;;;;6.22;4.22;;;16.20;56.70;;;;;;5078381;28;20049;-78
2022/03/08 09:04:30;;;;;;;4.60;3.22;;;16.30;55.60;;;;;;5075251;28;20045;-81
2022/03/08 09:06:56;;;;;;;8.48;3.15;;;16.60;55.70;;;;;;5073439;28;20498;-81
2022/03/08 09:09:23;;;;;;;4.28;2.65;;;16.70;54.90;;;;;;5060771;28;20449;-83
2022/03/08 09:11:50;;;;;;;3.28;2.80;;;17.00;54.70;;;;;;5066604;28;20048;-79
2022/03/08 09:14:17;;;;;;;4.00;2.78;;;17.20;53.40;;;;;;5073933;28;20106;-78
2022/03/08 09:16:45;;;;;;;40.53;28.05;;;17.40;52.30;;;;;;5075078;28;20414;-78
2022/03/08 09:19:12;;;;;;;69.47;40.50;;;17.70;52.20;;;;;;5072652;28;20106;-80
2022/03/08 09:21:39;;;;;;;79.35;57.63;;;17.80;51.20;;;;;;5074630;28;20044;-80
2022/03/08 09:24:06;;;;;;;16.30;10.90;;;18.00;51.50;;;;;;5075131;28;20098;-81
2022/03/08 09:26:33;;;;;;;3.88;2.78;;;18.20;50.90;;;;;;5072891;28;20044;-81
2022/03/08 09:29:00;;;;;;;3.60;2.25;;;18.40;50.50;;;;;;5072815;28;20044;-80
2022/03/08 09:31:27;;;;;;;3.88;2.72;;;18.60;49.70;;;;;;5071755;28;20122;-80
2022/03/08 09:33:55;;;;;;;4.10;2.65;;;18.80;48.70;;;;;;5069515;28;20392;-80
2022/03/08 09:36:23;;;;;;;3.38;2.53;;;19.00;48.20;;;;;;5077775;28;20041;-79
2022/03/08 09:38:50;;;;;;;5.22;2.90;;;19.30;48.10;;;;;;5077696;28;20045;-81
2022/03/08 09:41:17;;;;;;;3.40;2.70;;;19.60;47.90;;;;;;5078478;28;20106;-79
2022/03/08 09:43:44;;;;;;;2.58;2.17;;;19.80;46.80;;;;;;5077035;28;20053;-79
2022/03/08 09:46:11;;;;;;;2.50;2.00;;;20.00;46.50;;;;;;5077790;28;20094;-81
2022/03/08 09:48:38;;;;;;;1.67;1.50;;;20.20;45.70;;;;;;5080937;28;20168;-78
2022/03/08 09:51:06;;;;;;;1.98;1.20;;;20.60;45.40;;;;;;5084900;28;20556;-80
2022/03/08 09:53:34;;;;;;;3.42;1.75;;;20.70;44.90;;;;;;5078528;28;20052;-81
2022/03/08 09:56:03;;;;;;;4.88;1.98;;;20.90;44.70;;;;;;5081490;28;20048;-77
2022/03/08 09:58:30;;;;;;;1.95;1.40;;;21.30;44.50;;;;;;5076690;28;20170;-80
2022/03/08 10:00:59;;;;;;;1.30;1.13;;;21.90;43.50;;;;;;5076294;28;20102;-80
2022/03/08 10:03:34;;;;;;;3.65;1.45;;;22.50;42.40;;;;;;5076493;28;20106;-80
2022/03/08 10:06:01;;;;;;;3.88;1.40;;;22.90;41.40;;;;;;5077827;28;20470;-80
2022/03/08 10:08:29;;;;;;;2.92;1.48;;;23.30;40.50;;;;;;5076694;28;20040;-80
2022/03/08 10:10:59;;;;;;;12.48;7.53;;;23.80;39.90;;;;;;5077236;28;20040;-80
2022/03/08 10:13:29;;;;;;;12.13;7.88;;;24.10;39.50;;;;;;5076742;28;20512;-80
2022/03/08 10:16:10;;;;;;;34.60;20.60;;;24.10;38.80;;;;;;5076898;28;20574;-80
2022/03/08 10:18:40;;;;;;;22.45;16.02;;;24.80;38.70;;;;;;5076749;28;20074;-80
2022/03/08 10:21:25;;;;;;;17.38;9.90;;;25.40;38.10;;;;;;5077650;28;20053;-79
2022/03/08 10:23:54;;;;;;;27.13;15.80;;;25.50;36.60;;;;;;5077281;28;20490;-79
2022/03/08 10:26:22;;;;;;;10.25;6.50;;;25.80;36.30;;;;;;5077477;28;20086;-80
2022/03/08 10:28:51;;;;;;;14.48;10.13;;;25.80;36.40;;;;;;5079705;28;20060;-80
2022/03/08 10:31:18;;;;;;;4.45;3.00;;;26.00;36.30;;;;;;5076966;28;20544;-80
2022/03/08 10:33:46;;;;;;;4.57;2.65;;;24.80;35.50;;;;;;5076355;28;20424;-79
2022/03/08 10:36:15;;;;;;;3.63;3.03;;;24.60;35.90;;;;;;5076412;28;20487;-80
2022/03/08 10:39:01;;;;;;;3.88;3.30;;;24.10;35.70;;;;;;5076389;28;20057;-79
2022/03/08 10:41:28;;;;;;;4.85;3.00;;;24.30;36.10;;;;;;5076066;28;20094;-80
2022/03/08 10:43:57;;;;;;;4.72;4.18;;;24.50;36.30;;;;;;5075947;28;20474;-79
2022/03/08 10:46:25;;;;;;;5.72;4.03;;;25.80;36.20;;;;;;5075956;28;20486;-78
2022/03/08 10:48:54;;;;;;;4.03;3.22;;;26.70;35.20;;;;;;5076982;28;20051;-80
2022/03/08 10:51:21;;;;;;;8.63;3.92;;;26.40;34.20;;;;;;5077852;28;20044;-80
2022/03/08 10:53:48;;;;;;;4.22;3.33;;;27.20;34.20;;;;;;5075599;28;20053;-80
2022/03/08 10:56:21;;;;;;;5.72;3.20;;;27.50;33.80;;;;;;5075566;28;20491;-81
2022/03/08 10:58:49;;;;;;;5.60;4.47;;;28.00;33.40;;;;;;5075965;28;20051;-80
2022/03/08 11:01:16;;;;;;;7.60;6.00;;;28.60;32.60;;;;;;5076175;28;20052;-80
2022/03/08 11:03:56;;;;;;;9.38;5.47;;;28.80;32.10;;;;;;5075762;28;20076;-80
2022/03/08 11:06:23;;;;;;;5.53;4.43;;;28.60;32.00;;;;;;5076013;28;20047;-79
2022/03/08 11:08:50;;;;;;;7.20;4.40;;;28.30;32.30;;;;;;5076912;28;20102;-80
2022/03/08 11:11:20;;;;;;;10.38;5.78;;;28.70;32.40;;;;;;5075748;28;20082;-79
2022/03/08 11:13:50;;;;;;;8.82;6.38;;;29.10;31.90;;;;;;5075557;28;20048;-80
2022/03/08 11:16:18;;;;;;;5.23;3.60;;;28.70;31.70;;;;;;5075788;28;20059;-79
2022/03/08 11:18:48;;;;;;;3.42;2.55;;;28.20;31.20;;;;;;5075811;28;20051;-79
2022/03/08 11:21:16;;;;;;;3.83;2.22;;;28.50;32.00;;;;;;5075358;28;20045;-79
2022/03/08 11:23:44;;;;;;;3.47;3.10;;;28.10;31.70;;;;;;5059022;28;20044;-79
2022/03/08 11:26:12;;;;;;;8.57;5.15;;;27.90;32.10;;;;;;5075526;28;20118;-79
2022/03/08 11:28:44;;;;;;;6.07;3.50;;;27.90;32.20;;;;;;5074888;28;20457;-79
2022/03/08 11:31:11;;;;;;;;;;;28.30;31.70;;;;;;5075541;28;20052;-79
2022/03/08 11:33:44;;;;;;;6.75;3.45;;;28.50;31.60;;;;;;5078817;28;19943;-80
2022/03/08 11:36:21;;;;;;;8.70;6.43;;;28.40;31.00;;;;;;5068200;28;20053;-79
2022/03/08 11:39:20;;;;;;;6.43;4.07;;;28.30;31.10;;;;;;5081398;28;20048;-80
2022/03/08 11:41:48;;;;;;;3.83;2.45;;;28.40;31.40;;;;;;5072740;28;20114;-80
2022/03/08 11:44:26;;;;;;;3.28;1.88;;;27.60;31.30;;;;;;5075910;28;20506;-79
2022/03/08 11:47:11;;;;;;;2.67;2.00;;;27.10;31.80;;;;;;5076195;28;20049;-79
2022/03/08 11:49:44;;;;;;;3.38;2.05;;;27.10;31.40;;;;;;5059563;28;20513;-79
2022/03/08 11:52:13;;;;;;;2.70;1.88;;;27.70;31.60;;;;;;5058408;28;20062;-79
2022/03/08 11:54:40;;;;;;;3.70;2.13;;;27.90;31.40;;;;;;5078471;28;20044;-80
2022/03/08 11:57:07;;;;;;;4.32;2.72;;;28.50;31.40;;;;;;5077249;28;20059;-79
2022/03/08 11:59:35;;;;;;;2.75;2.00;;;27.50;30.40;;;;;;5075694;28;20509;-79
2022/03/08 12:02:04;;;;;;;2.83;2.00;;;27.90;30.60;;;;;;5075151;28;20048;-79
2022/03/08 12:04:45;;;;;;;5.70;2.95;;;28.50;30.80;;;;;;5074868;28;20132;-79
2022/03/08 12:07:26;;;;;;;2.95;2.15;;;28.60;30.70;;;;;;5076802;28;20044;-79
2022/03/08 12:10:26;;;;;;;4.90;3.03;;;29.20;30.50;;;;;;5076557;28;20076;-79
2022/03/08 12:12:54;;;;;;;5.80;2.75;;;28.90;30.20;;;;;;5073688;28;20052;-79
2022/03/08 12:15:23;;;;;;;5.40;2.40;;;28.90;30.20;;;;;;5074670;28;20063;-80
2022/03/08 12:18:18;;;;;;;3.13;1.98;;;28.60;30.70;;;;;;5075791;28;20044;-78
2022/03/08 12:20:44;;;;;;;5.15;3.45;;;28.50;30.20;;;;;;5074844;28;20045;-79
2022/03/08 12:23:11;;;;;;;2.45;2.25;;;28.50;30.90;;;;;;5074990;28;20052;-78
2022/03/08 12:25:38;;;;;;;7.25;3.95;;;28.50;31.10;;;;;;5074174;28;20101;-78
2022/03/08 12:28:05;;;;;;;2.92;2.28;;;28.40;30.60;;;;;;5074731;28;20048;-77
2022/03/08 12:31:05;;;;;;;14.10;9.57;;;28.20;30.70;;;;;;5075448;28;20044;-79
2022/03/08 12:34:03;;;;;;;7.15;4.60;;;27.90;30.60;;;;;;5075180;28;20123;-80
2022/03/08 12:36:30;;;;;;;5.20;2.78;;;28.30;30.60;;;;;;5076491;28;20040;-80
2022/03/08 12:38:57;;;;;;;2.60;1.85;;;28.10;30.40;;;;;;5075747;28;20398;-80
2022/03/08 12:41:27;;;;;;;2.15;1.40;;;27.00;30.80;;;;;;5075668;28;20421;-80
2022/03/08 12:43:59;;;;;;;3.90;2.58;;;26.30;31.10;;;;;;5075471;28;20052;-80
2022/03/08 12:46:26;;;;;;;5.40;2.35;;;26.80;31.80;;;;;;5074705;28;20047;-79
2022/03/08 12:48:53;;;;;;;1.42;1.30;;;26.60;31.80;;;;;;5074913;28;20098;-82
2022/03/08 12:51:22;;;;;;;1.65;1.55;;;25.00;31.60;;;;;;5075322;28;20044;-81
2022/03/08 12:53:56;;;;;;;1.92;1.20;;;25.50;32.10;;;;;;5077930;28;20070;-79